Time,TemperatureF,DewpointF,PressureIn,WindDirection,WindDirectionDegrees,WindSpeedMPH,WindSpeedGustMPH,Humidity,HourlyPrecipIn,Conditions,Clouds,dailyrainin,SoftwareType,DateUTC
2013-06-25 00:13:00,65.0,64.0,30.13,NW,304,5.0,-999.0,95,-99.99,,,0.00,weatherlink.com 1.10,2013-06-25 04:13:00,
2013-06-25 00:28:00,64.9,63.0,30.13,NW,316,5.0,-999.0,93,-99.99,,,0.00,weatherlink.com 1.10,2013-06-25 04:28:00,
2013-06-25 00:43:00,64.9,63.0,30.13,NW,305,4.0,-999.0,94,-99.99,,,0.00,weatherlink.com 1.10,2013-06-25 04:43:00,
2013-06-25 00:58:00,65.5,63.0,30.13,WNW,300,4.0,-999.0,91,-99.99,,,0.00,weatherlink.com 1.10,2013-06-25 04:58:00,
2013-06-25 01:13:00,65.7,63.0,30.12,NW,311,5.0,-999.0,90,-99.99,,,0.00,weatherlink.com 1.10,2013-06-25 05:13:00,
2013-06-25 01:28:00,65.6,62.0,30.12,WNW,301,8.0,-999.0,89,-99.99,,,0.00,weatherlink.com 1.10,2013-06-25 05:28:00,
2013-06-25 01:43:00,65.8,62.0,30.11,WNW,292,5.0,-999.0,88,-99.99,,,0.00,weatherlink.com 1.10,2013-06-25 05:43:00,
2013-06-25 01:58:00,66.4,63.0,30.11,NW,306,7.0,-999.0,87,-99.99,,,0.00,weatherlink.com 1.10,2013-06-25 05:58:00,
2013-06-25 02:13:00,65.5,62.0,30.10,NW,312,4.0,-999.0,88,-99.99,,,0.00,weatherlink.com 1.10,2013-06-25 06:13:00,
2013-06-25 02:28:00,65.4,62.0,30.10,NW,318,9.0,-999.0,89,-99.99,,,0.00,weatherlink.com 1.10,2013-06-25 06:28:00,
2013-06-25 02:43:00,65.6,63.0,30.10,NW,310,10.0,-999.0,90,-99.99,,,0.00,weatherlink.com 1.10,2013-06-25 06:43:00,
2013-06-25 02:58:00,65.8,63.0,30.10,NW,321,11.0,-999.0,90,-99.99,,,0.00,weatherlink.com 1.10,2013-06-25 06:58:00,
2013-06-25 03:13:00,65.4,63.0,30.09,NNW,329,4.0,-999.0,91,-99.99,,,0.00,weatherlink.com 1.10,2013-06-25 07:13:00,
2013-06-25 03:28:00,64.8,62.0,30.10,West,275,6.0,-999.0,91,-99.99,,,0.00,weatherlink.com 1.10,2013-06-25 07:28:00,
2013-06-25 03:43:00,64.7,62.0,30.09,NNW,333,8.0,-999.0,92,-99.99,,,0.00,weatherlink.com 1.10,2013-06-25 07:43:00,
2013-06-25 03:58:00,64.8,63.0,30.08,NW,315,14.0,-999.0,92,-99.99,,,0.00,weatherlink.com 1.10,2013-06-25 07:58:00,
2013-06-25 04:13:00,65.0,62.0,30.08,NNE,13,3.0,-999.0,90,-99.99,,,0.00,weatherlink.com 1.10,2013-06-25 08:13:00,
2013-06-25 04:28:00,64.6,62.0,30.08,NNE,13,4.0,-999.0,91,-99.99,,,0.00,weatherlink.com 1.10,2013-06-25 08:28:00,
2013-06-25 04:43:00,64.5,62.0,30.08,NNE,21,2.0,-999.0,91,-99.99,,,0.00,weatherlink.com 1.10,2013-06-25 08:43:00,
2013-06-25 04:58:00,64.4,62.0,30.08,North,5,3.0,-999.0,91,-99.99,,,0.00,weatherlink.com 1.10,2013-06-25 08:58:00,
2013-06-25 05:13:00,64.5,62.0,30.08,North,355,4.0,-999.0,90,-99.99,,,0.00,weatherlink.com 1.10,2013-06-25 09:13:00,
2013-06-25 05:28:00,64.8,62.0,30.08,NNE,15,3.0,-999.0,89,-99.99,,,0.00,weatherlink.com 1.10,2013-06-25 09:28:00,
2013-06-25 05:43:00,64.9,61.0,30.08,NW,325,5.0,-999.0,87,-99.99,,,0.00,weatherlink.com 1.10,2013-06-25 09:43:00,
2013-06-25 05:58:00,65.1,61.0,30.08,NNW,329,4.0,-999.0,87,-99.99,,,0.00,weatherlink.com 1.10,2013-06-25 09:58:00,
2013-06-25 06:13:00,65.3,61.0,30.09,NW,304,7.0,-999.0,87,-99.99,,,0.00,weatherlink.com 1.10,2013-06-25 10:13:00,
2013-06-25 06:28:00,64.8,61.0,30.09,NW,315,1.0,-999.0,88,-99.99,,,0.00,weatherlink.com 1.10,2013-06-25 10:28:00,
2013-06-25 06:43:00,64.8,61.0,30.10,NNW,337,6.0,-999.0,88,-99.99,,,0.00,weatherlink.com 1.10,2013-06-25 10:43:00,
2013-06-25 06:58:00,64.9,61.0,30.10,NW,304,7.0,-999.0,88,-99.99,,,0.00,weatherlink.com 1.10,2013-06-25 10:58:00,
2013-06-25 07:13:00,65.2,62.0,30.10,NNW,336,3.0,-999.0,88,-99.99,,,0.00,weatherlink.com 1.10,2013-06-25 11:13:00,
2013-06-25 07:28:00,64.9,62.0,30.11,NW,323,5.0,-999.0,89,-99.99,,,0.00,weatherlink.com 1.10,2013-06-25 11:28:00,
2013-06-25 07:43:00,65.3,62.0,30.11,NW,317,8.0,-999.0,89,-99.99,,,0.00,weatherlink.com 1.10,2013-06-25 11:43:00,
2013-06-25 07:58:00,65.4,63.0,30.11,NW,324,3.0,-999.0,90,-99.99,,,0.00,weatherlink.com 1.10,2013-06-25 11:58:00,
2013-06-25 08:13:00,65.6,63.0,30.11,NNW,332,6.0,-999.0,91,-99.99,,,0.00,weatherlink.com 1.10,2013-06-25 12:13:00,
2013-06-25 08:28:00,66.0,63.0,30.12,North,355,0.0,-999.0,91,-99.99,,,0.00,weatherlink.com 1.10,2013-06-25 12:28:00,
2013-06-25 08:43:00,66.3,63.0,30.12,NW,310,4.0,-999.0,89,-99.99,,,0.00,weatherlink.com 1.10,2013-06-25 12:43:00,
2013-06-25 08:58:00,67.1,63.0,30.12,NNW,341,3.0,-999.0,86,-99.99,,,0.00,weatherlink.com 1.10,2013-06-25 12:58:00,
2013-06-25 09:13:00,67.8,64.0,30.12,North,355,4.0,-999.0,86,-99.99,,,0.00,weatherlink.com 1.10,2013-06-25 13:13:00,
2013-06-25 09:28:00,67.7,63.0,30.12,NNW,330,9.0,-999.0,85,-99.99,,,0.00,weatherlink.com 1.10,2013-06-25 13:28:00,
2013-06-25 09:43:00,68.7,64.0,30.13,WNW,288,6.0,-999.0,84,-99.99,,,0.00,weatherlink.com 1.10,2013-06-25 13:43:00,
2013-06-25 09:58:00,68.4,63.0,30.12,WNW,295,6.0,-999.0,83,-99.99,,,0.00,weatherlink.com 1.10,2013-06-25 13:58:00,
2013-06-25 10:13:00,68.7,63.0,30.12,NNW,331,4.0,-999.0,83,-99.99,,,0.00,weatherlink.com 1.10,2013-06-25 14:13:00,
2013-06-25 10:28:00,69.5,64.0,30.12,NNE,16,1.0,-999.0,83,-99.99,,,0.00,weatherlink.com 1.10,2013-06-25 14:28:00,
2013-06-25 10:43:00,69.9,64.0,30.12,WNW,296,2.0,-999.0,81,-99.99,,,0.00,weatherlink.com 1.10,2013-06-25 14:43:00,
2013-06-25 10:58:00,71.5,65.0,30.12,NNE,33,2.0,-999.0,80,-99.99,,,0.00,weatherlink.com 1.10,2013-06-25 14:58:00,
2013-06-25 11:13:00,72.0,65.0,30.12,WNW,286,10.0,-999.0,78,-99.99,,,0.00,weatherlink.com 1.10,2013-06-25 15:13:00,
2013-06-25 11:28:00,72.1,65.0,30.12,North,355,2.0,-999.0,78,-99.99,,,0.00,weatherlink.com 1.10,2013-06-25 15:28:00,
2013-06-25 11:43:00,72.8,64.0,30.12,North,351,3.0,-999.0,74,-99.99,,,0.00,weatherlink.com 1.10,2013-06-25 15:43:00,
2013-06-25 11:58:00,72.4,63.0,30.12,NNW,335,5.0,-999.0,73,-99.99,,,0.00,weatherlink.com 1.10,2013-06-25 15:58:00,
2013-06-25 12:13:00,73.1,62.0,30.12,NNE,17,2.0,-999.0,69,-99.99,,,0.00,weatherlink.com 1.10,2013-06-25 16:13:00,
2013-06-25 12:28:00,74.5,65.0,30.11,ENE,63,2.0,-999.0,71,-99.99,,,0.00,weatherlink.com 1.10,2013-06-25 16:28:00,
2013-06-25 12:43:00,75.1,63.0,30.11,NNW,341,2.0,-999.0,66,-99.99,,,0.00,weatherlink.com 1.10,2013-06-25 16:43:00,
2013-06-25 12:58:00,76.9,64.0,30.11,North,350,1.0,-999.0,64,-99.99,,,0.00,weatherlink.com 1.10,2013-06-25 16:58:00,
2013-06-25 13:13:00,75.1,63.0,30.10,NNW,339,6.0,-999.0,66,-99.99,,,0.00,weatherlink.com 1.10,2013-06-25 17:13:00,
2013-06-25 13:28:00,76.0,64.0,30.09,North,360,0.0,-999.0,67,-99.99,,,0.00,weatherlink.com 1.10,2013-06-25 17:28:00,
2013-06-25 13:43:00,74.7,62.0,30.09,NNW,331,2.0,-999.0,64,-99.99,,,0.00,weatherlink.com 1.10,2013-06-25 17:43:00,
2013-06-25 13:58:00,73.7,62.0,30.08,NNW,343,0.0,-999.0,68,-99.99,,,0.00,weatherlink.com 1.10,2013-06-25 17:58:00,
2013-06-25 14:13:00,72.9,64.0,30.08,WSW,240,0.0,-999.0,73,-99.99,,,0.00,weatherlink.com 1.10,2013-06-25 18:13:00,
2013-06-25 14:28:00,71.5,65.0,30.07,WSW,238,0.0,-999.0,79,-99.99,,,0.00,weatherlink.com 1.10,2013-06-25 18:28:00,
2013-06-25 14:43:00,71.3,65.0,30.07,WSW,238,3.0,-999.0,80,-99.99,,,0.00,weatherlink.com 1.10,2013-06-25 18:43:00,
2013-06-25 14:58:00,69.3,64.0,30.07,WSW,238,0.0,-999.0,82,-99.99,,,0.00,weatherlink.com 1.10,2013-06-25 18:58:00,
2013-06-25 15:13:00,69.3,63.0,30.07,WSW,239,2.0,-999.0,81,-99.99,,,0.00,weatherlink.com 1.10,2013-06-25 19:13:00,
2013-06-25 15:28:00,69.4,63.0,30.07,WSW,239,1.0,-999.0,79,-99.99,,,0.00,weatherlink.com 1.10,2013-06-25 19:28:00,
2013-06-25 15:43:00,69.3,63.0,30.07,WSW,240,0.0,-999.0,80,-99.99,,,0.00,weatherlink.com 1.10,2013-06-25 19:43:00,
2013-06-25 15:58:00,69.2,63.0,30.06,WSW,240,3.0,-999.0,80,-99.99,,,0.00,weatherlink.com 1.10,2013-06-25 19:58:00,
2013-06-25 16:13:00,68.7,64.0,30.06,WNW,297,4.0,-999.0,84,-99.99,,,0.00,weatherlink.com 1.10,2013-06-25 20:13:00,
2013-06-25 16:28:00,67.9,64.0,30.05,WNW,297,4.0,-999.0,88,-99.99,,,0.00,weatherlink.com 1.10,2013-06-25 20:28:00,
2013-06-25 16:43:00,67.6,64.0,30.06,NW,313,0.0,-999.0,89,-99.99,,,0.00,weatherlink.com 1.10,2013-06-25 20:43:00,
2013-06-25 16:58:00,68.4,65.0,30.06,NNW,347,4.0,-999.0,88,-99.99,,,0.00,weatherlink.com 1.10,2013-06-25 20:58:00,
2013-06-25 17:13:00,68.8,65.0,30.05,NW,321,7.0,-999.0,86,-99.99,,,0.00,weatherlink.com 1.10,2013-06-25 21:13:00,
2013-06-25 17:28:00,68.6,65.0,30.05,West,278,6.0,-999.0,87,-99.99,,,0.00,weatherlink.com 1.10,2013-06-25 21:28:00,
2013-06-25 17:43:00,67.4,65.0,30.04,West,259,7.0,-999.0,90,-99.99,,,0.00,weatherlink.com 1.10,2013-06-25 21:43:00,
2013-06-25 17:58:00,67.5,63.0,30.04,West,264,5.0,-999.0,86,-99.99,,,0.00,weatherlink.com 1.10,2013-06-25 21:58:00,
2013-06-25 18:13:00,67.7,63.0,30.02,West,266,6.0,-999.0,86,-99.99,,,0.00,weatherlink.com 1.10,2013-06-25 22:13:00,
2013-06-25 18:28:00,67.9,64.0,30.01,West,266,0.0,-999.0,87,-99.99,,,0.00,weatherlink.com 1.10,2013-06-25 22:28:00,
2013-06-25 18:43:00,68.4,64.0,30.01,West,266,0.0,-999.0,86,-99.99,,,0.00,weatherlink.com 1.10,2013-06-25 22:43:00,
2013-06-25 18:58:00,69.1,65.0,30.02,West,266,2.0,-999.0,85,-99.99,,,0.00,weatherlink.com 1.10,2013-06-25 22:58:00,
2013-06-25 19:13:00,69.3,64.0,30.03,West,266,1.0,-999.0,84,-99.99,,,0.00,weatherlink.com 1.10,2013-06-25 23:13:00,
2013-06-25 19:28:00,69.4,64.0,30.03,West,266,3.0,-999.0,82,-99.99,,,0.00,weatherlink.com 1.10,2013-06-25 23:28:00,
2013-06-25 19:43:00,68.9,63.0,30.03,West,266,4.0,-999.0,81,-99.99,,,0.00,weatherlink.com 1.10,2013-06-25 23:43:00,
2013-06-25 19:58:00,68.8,63.0,30.03,West,266,2.0,-999.0,81,-99.99,,,0.00,weatherlink.com 1.10,2013-06-25 23:58:00,
2013-06-25 20:13:00,68.9,64.0,30.04,West,266,0.0,-999.0,84,-99.99,,,0.00,weatherlink.com 1.10,2013-06-26 00:13:00,
2013-06-25 20:28:00,69.1,63.0,30.03,West,266,3.0,-999.0,80,-99.99,,,0.00,weatherlink.com 1.10,2013-06-26 00:28:00,
2013-06-25 20:43:00,69.1,63.0,30.03,West,266,5.0,-999.0,80,-99.99,,,0.00,weatherlink.com 1.10,2013-06-26 00:43:00,
2013-06-25 20:58:00,68.7,63.0,30.02,West,269,2.0,-999.0,81,-99.99,,,0.00,weatherlink.com 1.10,2013-06-26 00:58:00,
2013-06-25 21:13:00,68.6,63.0,30.03,West,269,4.0,-999.0,82,-99.99,,,0.00,weatherlink.com 1.10,2013-06-26 01:13:00,
2013-06-25 21:28:00,68.5,63.0,30.03,West,269,5.0,-999.0,83,-99.99,,,0.00,weatherlink.com 1.10,2013-06-26 01:28:00,
2013-06-25 21:43:00,68.3,63.0,30.03,West,269,4.0,-999.0,82,-99.99,,,0.00,weatherlink.com 1.10,2013-06-26 01:43:00,
2013-06-25 21:58:00,67.8,63.0,30.03,West,273,6.0,-999.0,85,-99.99,,,0.00,weatherlink.com 1.10,2013-06-26 01:58:00,
2013-06-25 22:13:00,67.9,63.0,30.03,WNW,283,2.0,-999.0,85,-99.99,,,0.00,weatherlink.com 1.10,2013-06-26 02:13:00,
2013-06-25 22:28:00,67.7,63.0,30.04,WNW,300,4.0,-999.0,85,-99.99,,,0.00,weatherlink.com 1.10,2013-06-26 02:28:00,
2013-06-25 22:43:00,66.3,64.0,30.04,NNW,348,5.0,-999.0,91,-99.99,,,0.00,weatherlink.com 1.10,2013-06-26 02:43:00,
2013-06-25 22:58:00,65.8,64.0,30.03,North,350,4.0,-999.0,93,-99.99,,,0.00,weatherlink.com 1.10,2013-06-26 02:58:00,
2013-06-25 23:13:00,65.5,64.0,30.03,NNW,340,8.0,-999.0,94,-99.99,,,0.00,weatherlink.com 1.10,2013-06-26 03:13:00,
2013-06-25 23:28:00,65.7,63.0,30.03,North,355,3.0,-999.0,92,-99.99,,,0.00,weatherlink.com 1.10,2013-06-26 03:28:00,
2013-06-25 23:43:00,65.4,63.0,30.03,NNW,345,5.0,-999.0,93,-99.99,,,0.00,weatherlink.com 1.10,2013-06-26 03:43:00,
2013-06-25 23:58:00,65.3,63.0,30.02,NW,322,4.0,-999.0,93,-99.99,,,0.00,weatherlink.com 1.10,2013-06-26 03:58:00,